createdAt,value
2022-11-08T00:00:45.361Z,12.28
2022-11-08T00:03:14.718Z,12.30
2022-11-08T00:06:01.619Z,12.22
2022-11-08T00:08:49.385Z,12.26
2022-11-08T00:11:35.860Z,12.24
2022-11-08T00:14:04.971Z,12.26
2022-11-08T00:16:34.379Z,12.21
2022-11-08T00:19:03.605Z,12.05
2022-11-08T00:21:32.984Z,12.17
2022-11-08T00:24:03.605Z,12.20
2022-11-08T00:26:32.972Z,11.86
2022-11-08T00:29:02.535Z,11.76
2022-11-08T00:31:32.097Z,11.82
2022-11-08T00:34:01.149Z,11.82
2022-11-08T00:36:30.570Z,11.86
2022-11-08T00:38:59.733Z,11.78
2022-11-08T00:41:30.588Z,11.87
2022-11-08T00:43:59.614Z,11.93
2022-11-08T00:46:29.058Z,11.90
2022-11-08T00:48:58.360Z,11.68
2022-11-08T00:51:27.940Z,11.81
2022-11-08T00:53:57.028Z,11.82
2022-11-08T00:56:26.710Z,11.91
2022-11-08T00:58:57.212Z,11.83
2022-11-08T01:01:26.786Z,11.85
2022-11-08T01:03:56.041Z,11.86
2022-11-08T01:06:27.003Z,11.53
2022-11-08T01:08:57.313Z,11.71
2022-11-08T01:11:27.672Z,11.76
2022-11-08T01:14:00.634Z,11.58
2022-11-08T01:16:32.508Z,11.46
2022-11-08T01:19:03.560Z,11.62
2022-11-08T01:21:33.097Z,11.54
2022-11-08T01:24:02.143Z,11.64
2022-11-08T01:26:31.968Z,11.71
2022-11-08T01:29:02.404Z,11.52
2022-11-08T01:31:33.326Z,11.50
2022-11-08T01:34:02.518Z,11.65
2022-11-08T01:36:32.061Z,11.69
2022-11-08T01:39:01.250Z,11.87
2022-11-08T01:41:30.554Z,11.72
2022-11-08T01:44:01.851Z,11.71
2022-11-08T01:46:42.667Z,11.60
2022-11-08T01:49:46.059Z,11.51
2022-11-08T01:52:28.704Z,11.60
2022-11-08T01:55:18.857Z,11.46
2022-11-08T01:57:53.521Z,11.55
2022-11-08T02:00:24.507Z,11.66
2022-11-08T02:02:59.021Z,11.55
2022-11-08T02:05:29.735Z,11.68
2022-11-08T02:08:04.335Z,11.81
2022-11-08T02:10:37.190Z,11.54
2022-11-08T02:13:14.201Z,11.61
2022-11-08T02:15:45.833Z,11.83
2022-11-08T02:18:17.046Z,11.77
2022-11-08T02:20:53.711Z,11.90
2022-11-08T02:23:28.178Z,11.86
2022-11-08T02:25:58.648Z,11.78
2022-11-08T02:28:28.097Z,11.67
2022-11-08T02:30:57.256Z,11.87
2022-11-08T02:33:26.535Z,11.80
2022-11-08T02:35:57.801Z,11.89
2022-11-08T02:38:28.243Z,11.98
2022-11-08T02:40:59.416Z,11.86
2022-11-08T02:43:28.895Z,11.82
2022-11-08T02:46:00.043Z,11.65
2022-11-08T02:48:29.697Z,11.84
2022-11-08T02:50:58.893Z,11.99
2022-11-08T02:53:28.532Z,11.86
2022-11-08T02:55:59.166Z,11.84
2022-11-08T02:58:29.146Z,11.94
2022-11-08T03:00:58.358Z,11.99
2022-11-08T03:03:29.606Z,11.84
2022-11-08T03:05:59.161Z,11.93
2022-11-08T03:08:28.599Z,11.91
2022-11-08T03:11:01.440Z,11.97
2022-11-08T03:13:30.748Z,11.83
2022-11-08T03:16:02.653Z,11.88
2022-11-08T03:18:32.414Z,12.14
2022-11-08T03:21:02.510Z,11.91
2022-11-08T03:23:33.039Z,11.93
2022-11-08T03:26:04.925Z,11.87
2022-11-08T03:28:34.505Z,12.12
2022-11-08T03:36:15.924Z,12.07
2022-11-08T03:38:45.370Z,12.08
2022-11-08T03:41:15.797Z,12.06
2022-11-08T03:43:45.077Z,12.03
2022-11-08T03:46:14.151Z,12.06
2022-11-08T03:48:43.517Z,12.06
2022-11-08T03:51:12.975Z,12.18
2022-11-08T03:53:42.250Z,12.43
2022-11-08T03:56:11.377Z,12.34
2022-11-08T03:58:42.115Z,12.25
2022-11-08T04:01:11.217Z,12.28
2022-11-08T04:03:40.673Z,12.41
2022-11-08T04:06:10.619Z,12.35
2022-11-08T04:08:40.036Z,12.57
2022-11-08T04:11:26.350Z,12.34
2022-11-08T04:14:14.572Z,12.43
2022-11-08T04:16:43.703Z,12.33
2022-11-08T04:19:30.198Z,12.36
2022-11-08T04:21:59.445Z,12.65
2022-11-08T04:24:28.854Z,12.54
2022-11-08T04:26:57.946Z,12.56
2022-11-08T04:29:28.864Z,12.52
2022-11-08T04:31:57.886Z,12.37
2022-11-08T04:34:27.367Z,12.36
2022-11-08T04:36:57.186Z,12.31
2022-11-08T04:39:26.542Z,12.45
2022-11-08T04:42:01.731Z,12.56
2022-11-08T04:44:32.955Z,12.60
2022-11-08T04:47:01.961Z,12.53
2022-11-08T04:49:31.363Z,12.41
2022-11-08T04:52:01.480Z,12.56
2022-11-08T04:54:30.781Z,12.66
2022-11-08T04:56:59.797Z,12.42
2022-11-08T04:59:29.292Z,12.44
2022-11-08T05:01:59.903Z,12.51
2022-11-08T05:04:29.520Z,12.70
2022-11-08T05:06:59.024Z,12.57
2022-11-08T05:09:28.470Z,12.76
2022-11-08T05:11:57.523Z,12.59
2022-11-08T05:14:27.257Z,12.51
2022-11-08T05:16:56.518Z,12.57
2022-11-08T05:19:44.829Z,12.59
2022-11-08T05:22:31.399Z,12.77
2022-11-08T05:25:00.877Z,12.40
2022-11-08T05:27:30.020Z,12.62
2022-11-08T05:29:59.503Z,12.57
2022-11-08T05:32:28.660Z,12.85
2022-11-08T05:34:59.617Z,12.96
2022-11-08T05:37:28.810Z,12.92
2022-11-08T05:39:58.226Z,12.89
2022-11-08T05:42:27.390Z,12.80
2022-11-08T05:44:56.930Z,12.90
2022-11-08T05:47:26.122Z,12.75
2022-11-08T05:49:55.682Z,12.68
2022-11-08T05:52:26.167Z,12.55
2022-11-08T05:54:55.553Z,12.40
2022-11-08T05:57:24.574Z,12.46
2022-11-08T05:59:53.970Z,12.54
2022-11-08T06:02:23.358Z,12.46
2022-11-08T06:04:52.837Z,12.50
2022-11-08T06:07:21.812Z,12.57
2022-11-08T06:09:52.792Z,12.48
2022-11-08T06:12:22.034Z,12.54
2022-11-08T06:14:51.560Z,12.87
2022-11-08T06:17:23.809Z,12.63
2022-11-08T06:19:56.991Z,12.65
2022-11-08T06:22:26.085Z,12.91
2022-11-08T06:24:56.780Z,12.81
2022-11-08T06:27:25.892Z,12.90
2022-11-08T06:29:55.324Z,12.93
2022-11-08T06:32:24.394Z,12.89
2022-11-08T06:34:53.712Z,12.79
2022-11-08T06:37:22.870Z,12.73
2022-11-08T06:39:52.330Z,12.73
2022-11-08T06:42:23.018Z,12.74
2022-11-08T06:44:52.542Z,12.63
2022-11-08T06:47:21.684Z,12.78
2022-11-08T06:49:51.012Z,12.84
2022-11-08T06:52:20.056Z,12.80
2022-11-08T06:54:49.416Z,12.71
2022-11-08T06:57:18.589Z,12.55
2022-11-08T06:59:49.476Z,12.83
2022-11-08T07:02:18.936Z,12.98
2022-11-08T07:04:48.691Z,13.03
2022-11-08T07:07:17.846Z,12.78
2022-11-08T07:09:47.251Z,12.99
2022-11-08T07:12:16.458Z,13.11
2022-11-08T07:14:46.052Z,13.14
2022-11-08T07:17:16.760Z,13.14
2022-11-08T07:19:46.223Z,13.29
2022-11-08T07:22:15.321Z,13.30
2022-11-08T07:24:44.830Z,13.22
2022-11-08T07:27:13.900Z,13.39
2022-11-08T07:29:43.290Z,13.20
2022-11-08T07:32:12.435Z,13.27
2022-11-08T07:34:43.177Z,13.52
2022-11-08T07:37:12.216Z,13.48
2022-11-08T07:39:41.613Z,13.63
2022-11-08T07:42:10.709Z,13.86
2022-11-08T07:44:40.015Z,13.92
2022-11-08T07:47:09.039Z,13.85
2022-11-08T07:49:38.484Z,13.65
2022-11-08T07:52:08.923Z,13.65
2022-11-08T07:54:38.393Z,13.78
2022-11-08T07:57:07.376Z,14.06
2022-11-08T07:59:36.823Z,14.13
2022-11-08T08:02:06.177Z,13.88
2022-11-08T08:04:35.886Z,14.26
2022-11-08T08:07:05.409Z,14.27
2022-11-08T08:09:36.247Z,13.92
2022-11-08T08:12:05.682Z,14.24
2022-11-08T08:14:35.018Z,13.75
2022-11-08T08:17:04.342Z,13.86
2022-11-08T08:19:33.985Z,13.84
2022-11-08T08:22:02.999Z,14.15
2022-11-08T08:24:32.487Z,13.85
2022-11-08T08:27:02.944Z,13.77
2022-11-08T08:29:32.342Z,13.88
2022-11-08T08:32:01.422Z,13.97
2022-11-08T08:34:31.334Z,14.04
2022-11-08T08:37:00.469Z,14.03
2022-11-08T08:39:29.813Z,14.28
2022-11-08T08:41:58.915Z,14.46
2022-11-08T08:44:29.661Z,14.60
2022-11-08T08:46:58.722Z,14.51
2022-11-08T08:49:28.265Z,14.97
2022-11-08T08:51:57.289Z,15.07
2022-11-08T08:54:29.401Z,14.86
2022-11-08T08:56:58.771Z,15.14
2022-11-08T09:02:20.491Z,14.97
2022-11-08T09:04:49.791Z,14.92
2022-11-08T09:07:18.873Z,14.76
2022-11-08T09:09:48.275Z,14.75
2022-11-08T09:12:17.423Z,14.74
2022-11-08T09:14:48.412Z,14.65
2022-11-08T09:17:17.551Z,15.37
2022-11-08T09:19:47.439Z,15.31
2022-11-08T09:22:16.597Z,15.49
2022-11-08T09:24:45.954Z,15.69
2022-11-08T09:27:15.305Z,15.96
2022-11-08T09:29:44.629Z,15.71
2022-11-08T09:32:15.041Z,15.77
2022-11-08T09:34:44.328Z,15.77
2022-11-08T09:37:13.391Z,15.76
2022-11-08T09:39:42.809Z,15.37
2022-11-08T09:42:40.786Z,16.54
2022-11-08T09:45:23.943Z,17.43
2022-11-08T09:48:04.876Z,19.90
2022-11-08T09:50:40.032Z,20.05
2022-11-08T09:53:18.900Z,18.11
2022-11-08T09:55:53.848Z,17.63
2022-11-08T09:58:29.503Z,18.42
2022-11-08T10:00:59.888Z,18.36
2022-11-08T10:03:31.635Z,17.12
2022-11-08T10:06:37.302Z,17.33
2022-11-08T10:09:20.530Z,17.25
2022-11-08T10:12:04.227Z,17.51
2022-11-08T10:14:53.492Z,19.45
2022-11-08T10:17:53.430Z,19.63
2022-11-08T10:20:35.837Z,17.60
2022-11-08T10:23:19.479Z,17.42
2022-11-08T10:25:51.670Z,18.27
2022-11-08T10:28:29.570Z,18.18
2022-11-08T10:30:58.778Z,18.23
2022-11-08T10:33:33.457Z,18.25
2022-11-08T10:36:09.205Z,16.84
2022-11-08T10:38:46.946Z,16.78
2022-11-08T10:41:22.776Z,16.94
2022-11-08T10:43:56.745Z,17.34
2022-11-08T10:46:41.469Z,17.26
2022-11-08T10:49:22.211Z,18.09
2022-11-08T10:51:55.030Z,19.62
2022-11-08T10:54:55.424Z,18.90
2022-11-08T10:57:35.597Z,18.72
2022-11-08T11:00:26.120Z,20.72
2022-11-08T11:02:57.824Z,22.59
2022-11-08T11:05:33.463Z,22.07
2022-11-08T11:08:16.599Z,22.00
2022-11-08T11:10:47.807Z,24.05
2022-11-08T11:13:22.799Z,24.43
2022-11-08T11:15:54.714Z,24.76
2022-11-08T11:18:32.956Z,22.68
2022-11-08T11:21:10.980Z,22.51
2022-11-08T11:23:45.133Z,23.05
2022-11-08T11:26:30.409Z,25.27
2022-11-08T11:29:21.487Z,24.68
2022-11-08T11:31:53.160Z,24.53
2022-11-08T11:34:44.323Z,24.09
2022-11-08T11:37:23.962Z,25.24
2022-11-08T11:40:22.386Z,26.49
2022-11-08T11:43:03.011Z,23.67
2022-11-08T11:45:37.896Z,23.84
2022-11-08T11:48:15.483Z,25.19
2022-11-08T11:50:48.665Z,25.08
2022-11-08T11:53:22.890Z,26.33
2022-11-08T11:56:27.235Z,26.23
2022-11-08T11:59:20.593Z,25.91
2022-11-08T12:02:05.441Z,24.18
2022-11-08T12:04:47.191Z,25.16
2022-11-08T12:07:23.043Z,24.81
2022-11-08T12:10:08.298Z,27.58
2022-11-08T12:12:51.496Z,24.12
2022-11-08T12:15:27.095Z,25.87
2022-11-08T12:18:11.341Z,28.66
2022-11-08T12:20:52.896Z,25.94
2022-11-08T12:23:38.630Z,25.97
2022-11-08T12:26:18.744Z,25.86
2022-11-08T12:29:01.579Z,26.05
2022-11-08T12:31:34.800Z,25.35
2022-11-08T12:34:20.144Z,25.55
2022-11-08T12:37:03.495Z,25.54
2022-11-08T12:39:41.369Z,26.76
2022-11-08T12:42:32.438Z,25.31
2022-11-08T12:45:41.430Z,25.33
2022-11-08T12:48:21.546Z,24.92
2022-11-08T12:51:01.507Z,24.16
2022-11-08T12:53:55.180Z,26.81
2022-11-08T12:56:28.750Z,24.99
2022-11-08T12:58:59.066Z,24.11
2022-11-08T13:01:29.847Z,26.53
2022-11-08T13:04:27.018Z,25.21
2022-11-08T13:07:01.131Z,25.78
2022-11-08T13:09:41.201Z,26.64
2022-11-08T13:12:27.365Z,23.74
2022-11-08T13:14:56.905Z,21.26
2022-11-08T13:17:28.708Z,20.59
2022-11-08T13:20:05.120Z,20.45
2022-11-08T13:23:02.754Z,21.06
2022-11-08T13:25:39.359Z,20.95
2022-11-08T13:28:40.540Z,20.28
2022-11-08T13:31:29.262Z,20.18
2022-11-08T13:34:13.443Z,19.95
2022-11-08T13:36:56.830Z,19.18
2022-11-08T13:39:48.959Z,19.40
2022-11-08T13:42:38.935Z,18.72
2022-11-08T13:45:27.367Z,17.97
2022-11-08T13:47:59.704Z,18.28
2022-11-08T13:50:52.821Z,18.17
2022-11-08T13:53:45.847Z,18.02
2022-11-08T13:56:44.649Z,18.09
2022-11-08T13:59:50.832Z,17.96
2022-11-08T14:02:42.387Z,17.77
2022-11-08T14:05:33.537Z,17.58
2022-11-08T14:08:28.641Z,17.59
2022-11-08T14:11:22.841Z,17.63
2022-11-08T14:14:15.405Z,17.90
2022-11-08T14:16:58.438Z,17.86
2022-11-08T14:19:32.056Z,17.79
2022-11-08T14:22:05.045Z,17.45
2022-11-08T14:24:39.181Z,17.09
2022-11-08T14:27:08.678Z,16.71
2022-11-08T14:29:37.799Z,16.77
2022-11-08T14:32:16.405Z,16.73
2022-11-08T14:34:46.246Z,16.43
2022-11-08T14:37:23.063Z,16.07
2022-11-08T14:39:54.475Z,16.02
2022-11-08T14:42:26.056Z,15.94
2022-11-08T14:44:58.935Z,15.63
2022-11-08T14:47:31.128Z,15.53
2022-11-08T14:50:00.796Z,15.41
2022-11-08T14:52:31.731Z,15.57
2022-11-08T14:55:05.772Z,15.29
2022-11-08T14:57:37.705Z,15.65
2022-11-08T15:00:16.047Z,15.24
2022-11-08T15:02:48.323Z,15.27
2022-11-08T15:05:39.856Z,15.21
2022-11-08T15:08:18.723Z,15.14
2022-11-08T15:11:01.805Z,15.08
2022-11-08T15:13:35.135Z,15.10
2022-11-08T15:16:07.339Z,15.07
2022-11-08T15:18:39.500Z,14.92
2022-11-08T15:21:23.386Z,14.63
2022-11-08T15:23:54.572Z,14.65
2022-11-08T15:26:28.397Z,14.50
2022-11-08T15:29:03.863Z,14.56
2022-11-08T15:31:36.598Z,14.49
2022-11-08T15:34:06.508Z,14.30
2022-11-08T15:36:37.545Z,14.34
2022-11-08T15:39:08.171Z,14.20
2022-11-08T15:41:41.592Z,14.23
2022-11-08T15:44:23.087Z,14.10
2022-11-08T15:46:53.512Z,14.10
2022-11-08T15:49:24.736Z,14.08
2022-11-08T15:51:55.418Z,13.80
2022-11-08T15:54:26.342Z,13.82
2022-11-08T15:56:58.083Z,13.69
2022-11-08T15:59:31.035Z,13.90
2022-11-08T16:02:02.890Z,14.06
2022-11-08T16:04:32.764Z,14.05
2022-11-08T16:07:01.924Z,13.93
2022-11-08T16:09:31.309Z,13.84
2022-11-08T16:12:03.990Z,14.01
2022-11-08T16:14:33.564Z,13.78
2022-11-08T16:17:02.803Z,13.86
2022-11-08T16:19:32.403Z,13.93
2022-11-08T16:22:07.262Z,13.81
2022-11-08T16:24:36.709Z,13.92
2022-11-08T16:27:07.405Z,13.87
2022-11-08T16:29:37.277Z,13.96
2022-11-08T16:32:06.799Z,13.84
2022-11-08T16:34:36.199Z,13.72
2022-11-08T16:37:05.255Z,13.97
2022-11-08T16:39:35.527Z,14.13
2022-11-08T16:42:06.525Z,14.03
2022-11-08T16:44:35.995Z,13.91
2022-11-08T16:47:05.206Z,13.72
2022-11-08T16:49:34.850Z,13.70
2022-11-08T16:52:04.055Z,13.63
2022-11-08T16:54:33.404Z,13.57
2022-11-08T16:57:33.028Z,13.57
2022-11-08T16:59:53.310Z,13.60
2022-11-08T17:02:30.549Z,13.59
2022-11-08T17:04:59.896Z,13.67
2022-11-08T17:07:30.438Z,13.48
2022-11-08T17:09:59.809Z,13.49
2022-11-08T17:12:28.870Z,13.59
2022-11-08T17:14:59.770Z,13.41
2022-11-08T17:17:28.898Z,13.57
2022-11-08T17:19:58.615Z,13.44
2022-11-08T17:22:27.738Z,13.64
2022-11-08T17:24:57.104Z,13.33
2022-11-08T17:27:26.305Z,13.32
2022-11-08T17:29:55.723Z,13.51
2022-11-08T17:32:26.335Z,13.40
2022-11-08T17:34:55.744Z,13.28
2022-11-08T17:37:25.143Z,13.20
2022-11-08T17:39:55.548Z,13.22
2022-11-08T17:42:25.094Z,13.09
2022-11-08T17:44:56.811Z,13.23
2022-11-08T17:47:28.520Z,13.18
2022-11-08T17:49:58.019Z,13.07
2022-11-08T17:52:27.195Z,13.13
2022-11-08T17:54:56.694Z,13.13
2022-11-08T17:57:25.782Z,13.01
2022-11-08T17:59:55.201Z,13.09
2022-11-08T18:02:25.251Z,13.02
2022-11-08T18:04:57.333Z,13.15
2022-11-08T18:07:26.376Z,13.14
2022-11-08T18:09:55.831Z,13.17
2022-11-08T18:12:25.277Z,12.96
2022-11-08T18:14:55.911Z,12.92
2022-11-08T18:17:27.078Z,12.87
2022-11-08T18:19:57.937Z,13.11
2022-11-08T18:22:26.991Z,12.92
2022-11-08T18:24:56.621Z,12.91
2022-11-08T18:27:25.757Z,13.06
2022-11-08T18:29:55.275Z,13.12
2022-11-08T18:32:24.381Z,13.13
2022-11-08T18:34:53.889Z,13.08
2022-11-08T18:37:24.477Z,13.05
2022-11-08T18:39:53.835Z,13.02
2022-11-08T18:42:22.953Z,12.89
2022-11-08T18:44:52.551Z,12.96
2022-11-08T18:47:23.460Z,12.92
2022-11-08T18:49:55.562Z,12.90
2022-11-08T18:52:26.403Z,13.00
2022-11-08T18:54:55.734Z,13.08
2022-11-08T18:57:24.710Z,12.76
2022-11-08T18:59:59.762Z,12.87
2022-11-08T19:02:30.002Z,12.90
2022-11-08T19:05:00.553Z,13.03
2022-11-08T19:07:31.592Z,12.97
2022-11-08T19:10:02.638Z,12.79
2022-11-08T19:12:31.765Z,13.11
2022-11-08T19:15:02.400Z,12.92
2022-11-08T19:17:31.964Z,12.86
2022-11-08T19:20:01.399Z,12.82
2022-11-08T19:22:32.113Z,13.00
2022-11-08T19:25:01.493Z,13.03
2022-11-08T19:27:30.812Z,12.96
2022-11-08T19:30:00.630Z,12.83
2022-11-08T19:32:30.522Z,12.86
2022-11-08T19:34:59.850Z,12.93
2022-11-08T19:37:30.514Z,12.84
2022-11-08T19:40:00.661Z,12.89
2022-11-08T19:42:29.944Z,12.76
2022-11-08T19:44:59.485Z,12.81
2022-11-08T19:47:29.391Z,12.89
2022-11-08T19:49:58.796Z,12.94
2022-11-08T19:52:30.317Z,12.99
2022-11-08T19:55:02.353Z,12.86
2022-11-08T19:57:35.207Z,12.89
2022-11-08T20:00:10.797Z,12.86
2022-11-08T20:02:43.335Z,12.76
2022-11-08T20:05:14.123Z,12.92
2022-11-08T20:07:48.181Z,12.86
2022-11-08T20:10:18.073Z,12.87
2022-11-08T20:12:48.206Z,12.93
2022-11-08T20:15:20.498Z,12.93
2022-11-08T20:17:49.628Z,12.84
2022-11-08T20:20:20.185Z,13.00
2022-11-08T20:22:50.714Z,12.93
2022-11-08T20:25:20.317Z,12.87
2022-11-08T20:27:49.469Z,12.78
2022-11-08T20:30:19.147Z,12.60
2022-11-08T20:32:48.155Z,12.77
2022-11-08T20:35:23.074Z,12.74
2022-11-08T20:37:57.681Z,12.77
2022-11-08T20:40:27.078Z,12.59
2022-11-08T20:42:56.144Z,12.62
2022-11-08T20:45:25.595Z,12.60
2022-11-08T20:47:54.631Z,12.51
2022-11-08T20:50:24.123Z,12.50
2022-11-08T20:52:54.566Z,12.58
2022-11-08T20:55:25.237Z,12.38
2022-11-08T20:57:54.234Z,12.32
2022-11-08T21:00:37.968Z,12.33
2022-11-08T21:03:17.765Z,12.23
2022-11-08T21:05:52.443Z,12.29
2022-11-08T21:11:14.013Z,12.35
2022-11-08T21:13:44.864Z,12.23
2022-11-08T21:16:29.181Z,12.23
2022-11-08T21:18:58.971Z,12.27
2022-11-08T21:21:28.597Z,12.16
2022-11-08T21:23:59.228Z,12.03
2022-11-08T21:26:28.721Z,12.06
2022-11-08T21:28:57.924Z,12.18
2022-11-08T21:31:27.545Z,12.18
2022-11-08T21:33:56.828Z,12.19
2022-11-08T21:36:27.055Z,12.17
2022-11-08T21:38:56.183Z,12.08
2022-11-08T21:41:27.075Z,11.98
2022-11-08T21:43:56.289Z,11.90
2022-11-08T21:46:27.712Z,12.10
2022-11-08T21:48:58.718Z,12.19
2022-11-08T21:51:30.472Z,12.10
2022-11-08T21:54:00.622Z,12.15
2022-11-08T21:56:34.290Z,12.15
2022-11-08T21:59:04.480Z,12.21
2022-11-08T22:01:34.032Z,12.25
2022-11-08T22:04:03.186Z,12.19
2022-11-08T22:06:32.611Z,12.23
2022-11-08T22:09:01.810Z,12.47
2022-11-08T22:11:32.798Z,12.34
2022-11-08T22:14:02.426Z,12.45
2022-11-08T22:16:31.884Z,12.39
2022-11-08T22:19:05.657Z,12.39
2022-11-08T22:21:39.245Z,12.40
2022-11-08T22:24:12.647Z,12.35
2022-11-08T22:26:43.989Z,12.27
2022-11-08T22:29:13.812Z,12.35
2022-11-08T22:31:44.026Z,12.35
2022-11-08T22:34:13.306Z,12.35
2022-11-08T22:36:45.610Z,12.51
2022-11-08T22:39:15.903Z,12.50
2022-11-08T22:41:48.375Z,12.45
2022-11-08T22:44:18.104Z,12.42
2022-11-08T22:46:49.223Z,12.47
2022-11-08T22:49:18.698Z,12.68
2022-11-08T22:51:48.103Z,12.61
2022-11-08T22:54:17.355Z,12.41
2022-11-08T22:56:48.382Z,12.51
2022-11-08T22:59:17.625Z,12.57
2022-11-08T23:01:47.161Z,12.52
2022-11-08T23:04:16.600Z,12.45
2022-11-08T23:06:46.055Z,12.44
2022-11-08T23:09:15.477Z,12.44
2022-11-08T23:12:02.444Z,12.46
2022-11-08T23:14:50.662Z,12.38
2022-11-08T23:17:20.077Z,12.42
2022-11-08T23:20:06.708Z,12.45
2022-11-08T23:22:53.217Z,12.46
2022-11-08T23:25:22.141Z,12.47
2022-11-08T23:28:09.383Z,12.40
2022-11-08T23:30:58.569Z,12.44
2022-11-08T23:33:28.178Z,12.29
2022-11-08T23:36:12.912Z,12.38
2022-11-08T23:38:42.619Z,12.39
2022-11-08T23:41:29.764Z,12.38
2022-11-08T23:44:16.702Z,12.34
2022-11-08T23:46:47.406Z,12.38
2022-11-08T23:49:16.976Z,12.31
2022-11-08T23:51:46.466Z,12.42
2022-11-08T23:54:16.211Z,12.30
2022-11-08T23:56:45.966Z,12.25
2022-11-08T23:59:16.441Z,12.44
